Aeroporto :
LOGIN :

Iscrizione | Disclaimer

   EN    FR    IT 

 










Sommario :    VFR   VFR Marginale   IFR   IFR Intensivo   IFR Molto Intensivo
Visibilità : 
Base nubi : 
>= 8 km
>= 3000ft
5 / 8 km
1000 / 3000 ft
1500m / 5 km
500 / 1000 ft
800 / 1500m
200 / 500 ft
< 800m
< 200 ft
Simboli :   Temporali  Nebbia  Neve Forte  Precipitazioni Forti  Vento > 20 kt
SIGMETs :   Varie  Temporali  Ghiacco  Turbolenza  Onda orograficha  Ceneri Vulcaniche






- Altitudine del aeroporto : 49 ft
- Codice IATA : SEN


EGMC - Southend

ULTIMO METAR :
  • 262350Z 20008KT 9999 FEW017 07/06 Q1005

METARs OBSOLETI :
  • 262320Z 22009KT 9999 FEW017 07/06 Q1006
  • 262250Z 22009KT 9999 FEW017 08/07 Q1006
  • 262220Z 21009KT 9999 FEW028 08/07 Q1005
  • 262150Z 22012KT 9999 FEW028 08/07 Q1005

TAF TAF EGMC
Valido dal 27 a 00 ore il 27 a 09 ore UTC


262256Z 2700/2709 22009KT 9999 FEW010 SCT020
PROB30
TEMPO 2700/2703 BKN012



MetMap, La meteo Aeronautica in un colpo d'occhio ! - Copyright ORBIFLY Dicembre 2007 - Disclaimer

ORBIFLY MET'MAP TEAM :

Programmazione e sviluppo : Alexandra Zaïnal
Concezione : Baudouin d'Aumeries
Aiuto per la programmazione : Marc-Olivier Méhu
Supporto tecnico e logistico : Manuel Goepfert
Aiuto per la traduzione : Arnaldo La Scala

Contatto : metmap@orbifly.com




FONTI E CREDITI :

   NOAA